Time;durP1;ratioP1;P1;durP2;ratioP2;P2;SDS_P1;SDS_P2;PMS_P1;PMS_P2;Temp;Humidity;BMP_temperature;BMP_pressure;BME280_temperature;BME280_humidity;BME280_pressure;Samples;Min_cycle;Max_cycle;Signal;HPM_P1;HPM_P2
2024/02/01 00:02:19;;;;;;;11.48;6.30;;;;;;;-144.05;69.07;56986.91;5092130;28;20110;-77
2024/02/01 00:04:45;;;;;;;12.93;6.53;;;;;;;-144.05;69.09;56942.28;5091662;28;20055;-77
2024/02/01 00:07:11;;;;;;;11.50;6.80;;;;;;;-144.05;69.58;56967.78;5090402;28;20189;-77
2024/02/01 00:09:38;;;;;;;10.60;6.75;;;;;;;-144.05;70.81;56969.91;5092254;28;20024;-77
2024/02/01 00:12:05;;;;;;;10.45;6.60;;;;;;;-144.05;71.45;56963.53;5092010;28;20024;-77
2024/02/01 00:14:31;;;;;;;12.63;6.43;;;;;;;-144.05;72.00;56967.78;5091478;28;20032;-77
2024/02/01 00:16:57;;;;;;;12.32;7.30;;;;;;;-144.05;72.68;56967.78;5091503;28;20051;-76
2024/02/01 00:19:23;;;;;;;14.85;6.95;;;;;;;-144.05;73.38;56974.16;5091146;28;20572;-76
2024/02/01 00:21:49;;;;;;;11.32;6.63;;;6.80;99.90;;;-144.05;74.59;56989.00;5091705;28;20060;-77
2024/02/01 00:24:16;;;;;;;17.15;7.07;;;6.70;99.90;;;-144.05;75.97;56965.66;5091005;28;20039;-76
2024/02/01 00:26:42;;;;;;;10.38;7.18;;;6.90;99.90;;;-144.05;75.26;56959.28;5090994;28;20032;-78
2024/02/01 00:29:08;;;;;;;14.75;6.95;;;6.80;99.90;;;-144.05;76.34;56972.03;5091276;28;20020;-77
2024/02/01 00:31:34;;;;;;;13.77;7.57;;;;;;;-144.05;76.67;56978.41;5103631;28;20079;-75
2024/02/01 00:34:01;;;;;;;18.50;7.78;;;;;;;-144.05;77.48;56944.41;5093812;28;20222;-78
2024/02/01 00:36:27;;;;;;;13.75;7.85;;;;;;;-144.05;78.40;56980.53;5095125;28;20357;-76
2024/02/01 00:38:53;;;;;;;18.48;8.18;;;;;;;-144.05;78.34;56959.28;5089699;28;20043;-76
2024/02/01 00:41:21;;;;;;;14.85;8.15;;;;;;;-144.05;78.23;56972.03;5090601;28;20467;-77
2024/02/01 00:43:47;;;;;;;13.73;8.25;;;;;;;-144.05;79.41;56974.16;5089715;28;20104;-78
2024/02/01 00:46:14;;;;;;;16.60;8.63;;;;;;;-144.05;80.93;56976.28;5089013;28;20038;-78
2024/02/01 00:48:41;;;;;;;14.98;9.00;;;6.90;99.90;;;-144.05;81.01;56986.91;5088912;28;20102;-77
2024/02/01 00:51:08;;;;;;;20.73;9.50;;;7.30;99.90;;;-144.05;81.69;56944.41;5090381;28;20020;-78
2024/02/01 00:53:35;;;;;;;14.40;8.80;;;;;;;-144.05;83.30;56959.28;5093705;28;20031;-79
2024/02/01 00:56:01;;;;;;;19.33;9.38;;;6.90;99.90;;;-144.05;84.72;56984.78;5098171;28;20062;-79
2024/02/01 00:58:27;;;;;;;18.50;11.02;;;;;;;-144.05;85.08;56978.41;5100822;28;20024;-78
2024/02/01 01:00:54;;;;;;;20.33;9.95;;;;;;;-144.05;86.38;56976.28;5091887;28;20032;-78
2024/02/01 01:03:20;;;;;;;19.80;10.95;;;;;;;-144.05;86.40;56974.16;5091985;28;20024;-81
2024/02/01 01:05:46;;;;;;;18.35;10.45;;;;;;;-144.05;87.70;56984.78;5102702;27;20039;-79
2024/02/01 01:08:13;;;;;;;16.17;10.90;;;;;;;-144.05;87.40;56972.03;5091963;28;20066;-78
2024/02/01 01:10:39;;;;;;;18.98;10.90;;;;;;;-144.05;87.98;56982.66;5091721;28;20024;-77
2024/02/01 01:13:05;;;;;;;18.33;10.38;;;6.60;99.90;;;-144.05;88.03;57001.75;5093157;28;20079;-78
2024/02/01 01:15:31;;;;;;;17.33;10.88;;;;;;;-144.05;87.76;56972.03;5093048;28;20056;-78
2024/02/01 01:17:58;;;;;;;18.60;11.85;;;;;;;-144.05;88.24;56982.66;5093187;28;20020;-78
2024/02/01 01:20:23;;;;;;;19.73;11.63;;;7.00;99.90;;;-144.05;88.21;56972.03;5091803;28;20074;-78
2024/02/01 01:22:49;;;;;;;19.25;12.13;;;7.20;99.90;;;-144.05;88.90;56976.28;5093361;28;20481;-78
2024/02/01 01:25:16;;;;;;;21.85;12.63;;;6.70;99.90;;;-144.05;88.81;56978.41;5101932;28;20036;-77
2024/02/01 01:27:42;;;;;;;23.15;12.48;;;;;;;-144.05;89.31;56948.66;5104479;28;20432;-77
2024/02/01 01:30:09;;;;;;;21.27;12.70;;;6.60;99.90;;;-144.05;89.36;56976.28;5097628;28;20028;-76
2024/02/01 01:32:35;;;;;;;22.15;12.95;;;6.40;99.90;;;-144.05;89.61;56989.00;5092940;28;20427;-77
2024/02/01 01:35:02;;;;;;;22.33;13.45;;;6.40;99.90;;;-144.05;90.07;56959.28;5092772;28;20063;-77
2024/02/01 01:37:28;;;;;;;16.40;11.10;;;3.90;99.90;;;-144.05;89.76;56963.53;5100620;28;20073;-77
2024/02/01 01:39:54;;;;;;;22.90;12.98;;;;;;;-144.05;89.66;56946.53;5093206;28;20427;-75
2024/02/01 01:42:20;;;;;;;21.83;12.23;;;6.80;99.90;;;-144.05;89.43;56961.41;5091461;28;20477;-78
2024/02/01 01:44:46;;;;;;;27.33;13.20;;;;;;;-144.05;89.39;56948.66;5091389;28;20035;-78
2024/02/01 01:47:12;;;;;;;19.05;11.35;;;6.50;99.90;;;-144.05;89.26;56965.66;5092729;28;20032;-79
2024/02/01 01:49:38;;;;;;;25.95;14.40;;;6.20;99.90;;;-144.05;90.35;56974.16;5091272;28;20035;-77
2024/02/01 01:52:05;;;;;;;22.88;13.25;;;7.30;99.90;;;-144.05;90.65;56961.41;5106908;28;20028;-77
2024/02/01 01:54:34;;;;;;;18.98;12.40;;;6.90;99.90;;;-144.05;90.04;56972.03;5095968;28;20395;-77
2024/02/01 01:57:01;;;;;;;22.40;12.07;;;7.40;99.90;;;-144.05;91.35;56989.00;5105234;28;20024;-77
2024/02/01 01:59:28;;;;;;;21.25;12.02;;;6.60;99.90;;;-144.05;90.82;56997.50;5091004;28;20024;-77
2024/02/01 02:01:54;;;;;;;20.15;12.98;;;;;;;-144.05;91.28;56967.78;5092354;28;20078;-78
2024/02/01 02:04:23;;;;;;;21.90;12.73;;;7.20;99.90;;;-144.05;91.86;56963.53;5091485;28;20125;-78
2024/02/01 02:06:55;;;;;;;21.98;12.80;;;7.30;99.90;;;-144.05;91.46;56978.41;5092535;28;20024;-77
2024/02/01 02:09:22;;;;;;;23.13;12.25;;;6.70;99.90;;;-144.05;91.18;56974.16;5092091;28;20028;-79
2024/02/01 02:11:49;;;;;;;17.25;12.13;;;;;;;-144.05;91.63;56946.53;5092095;28;20020;-78
2024/02/01 02:14:16;;;;;;;21.13;12.63;;;7.10;99.90;;;-144.05;91.17;56963.53;5099122;28;20455;-78
2024/02/01 02:16:43;;;;;;;19.85;12.85;;;6.50;99.90;;;-144.05;91.64;56967.78;5097311;28;20055;-77
2024/02/01 02:19:09;;;;;;;20.55;12.68;;;6.80;99.90;;;-144.05;91.81;56986.91;5091855;28;20020;-78
2024/02/01 02:21:47;;;;;;;17.48;12.52;;;7.20;99.90;;;-144.05;91.82;56976.28;5091922;28;20051;-78
2024/02/01 02:24:19;;;;;;;20.02;11.85;;;4.10;99.90;;;-144.05;91.78;56959.28;5091594;28;20040;-78
2024/02/01 02:26:48;;;;;;;16.30;11.48;;;6.40;99.90;;;-144.05;91.75;56986.91;5091791;28;20520;-76
2024/02/01 02:29:16;;;;;;;20.05;11.35;;;6.80;99.90;;;-144.05;91.61;56974.16;5091619;28;20608;-78
2024/02/01 02:31:47;;;;;;;18.73;12.45;;;8.20;99.90;;;-144.05;91.63;56989.00;5091889;28;20173;-78
2024/02/01 02:34:13;;;;;;;16.40;10.98;;;;;;;-144.05;91.26;56974.16;5091503;28;20136;-77
2024/02/01 02:36:40;;;;;;;19.38;12.93;;;;;;;-144.05;91.76;56967.78;5092607;28;20158;-80
2024/02/01 02:39:11;;;;;;;18.40;11.88;;;6.70;99.90;;;-144.05;92.16;56963.53;5093275;28;20081;-83
2024/02/01 02:41:38;;;;;;;19.50;12.95;;;6.60;99.90;;;-144.05;91.95;56972.03;5093413;28;20111;-80
2024/02/01 02:44:08;;;;;;;18.70;12.85;;;;;;;-144.05;92.48;56959.28;5092877;28;20028;-81
2024/02/01 02:46:34;;;;;;;20.48;12.52;;;6.30;99.90;;;-144.05;91.97;56955.03;5092593;28;20433;-82
2024/02/01 02:49:00;;;;;;;17.35;12.98;;;7.40;99.90;;;-144.05;92.07;56965.66;5091601;28;20036;-81
2024/02/01 02:51:26;;;;;;;16.27;12.27;;;7.70;99.90;;;-144.05;92.28;56969.91;5092530;28;20028;-81
2024/02/01 02:53:53;;;;;;;17.13;12.50;;;;;;;-144.05;92.29;56986.91;5091371;28;20160;-79
2024/02/01 02:56:21;;;;;;;20.05;13.10;;;6.90;99.90;;;-144.05;92.63;56980.53;5100062;28;20031;-80
2024/02/01 02:58:47;;;;;;;16.90;11.88;;;6.90;99.90;;;-144.05;92.44;56942.28;5096947;28;20493;-80
2024/02/01 03:01:13;;;;;;;19.25;12.43;;;;;;;-144.05;92.26;56948.66;5090387;28;20042;-78
2024/02/01 03:03:40;;;;;;;14.75;10.68;;;6.80;99.90;;;-144.05;93.08;56980.53;5091794;28;20111;-79
2024/02/01 03:06:12;;;;;;;16.77;11.88;;;;;;;-144.05;92.26;56959.28;5091306;28;20020;-80
2024/02/01 03:08:42;;;;;;;17.15;11.63;;;6.50;99.90;;;-144.05;91.30;56957.16;5090398;28;20027;-80
2024/02/01 03:11:12;;;;;;;19.00;11.45;;;6.60;99.90;;;-144.05;91.46;56963.53;5091329;28;20058;-80
2024/02/01 03:13:41;;;;;;;14.73;10.30;;;7.40;99.90;;;-144.05;91.84;56974.16;5093536;28;20081;-80
2024/02/01 03:16:17;;;;;;;14.70;10.80;;;8.60;99.90;;;-144.05;92.99;56967.78;5089925;28;20020;-79
2024/02/01 03:18:49;;;;;;;13.40;10.00;;;8.20;99.90;;;-144.05;92.21;56959.28;5091002;28;20044;-79
2024/02/01 03:21:17;;;;;;;14.25;9.80;;;6.40;99.90;;;-144.05;91.90;56955.03;5091590;28;20020;-80
2024/02/01 03:23:47;;;;;;;14.48;10.02;;;8.30;99.90;;;-144.05;92.82;56938.03;5090342;28;20085;-78
2024/02/01 03:26:13;;;;;;;14.02;9.90;;;;;;;-144.05;93.76;56969.91;5089978;28;20117;-78
2024/02/01 03:28:43;;;;;;;14.25;10.27;;;8.70;99.90;;;-144.05;93.24;56952.91;5092151;28;20028;-80
2024/02/01 03:31:09;;;;;;;15.50;10.40;;;8.00;99.90;;;-144.05;93.49;56965.66;5106953;28;20028;-81
2024/02/01 03:33:38;;;;;;;14.57;9.32;;;7.30;99.90;;;-144.05;93.16;56976.28;5091302;28;20032;-82
2024/02/01 03:36:11;;;;;;;14.02;9.90;;;6.90;99.90;;;-144.05;93.14;56967.78;5091063;28;20020;-83
2024/02/01 03:38:42;;;;;;;14.82;10.35;;;7.10;99.90;;;-144.05;93.90;56946.53;5092105;28;20032;-82
2024/02/01 03:41:08;;;;;;;14.73;10.60;;;6.70;99.90;;;-144.05;94.64;56938.03;5093371;28;20424;-83
2024/02/01 03:43:34;;;;;;;16.23;10.00;;;;;;;-144.05;93.90;56978.41;5091745;28;20032;-81
2024/02/01 03:46:00;;;;;;;15.18;11.23;;;7.40;99.90;;;-144.05;94.62;56965.66;5104869;28;20103;-81
2024/02/01 03:48:26;;;;;;;15.75;11.07;;;7.10;99.90;;;-144.05;94.34;56959.28;5106133;28;20028;-82
2024/02/01 03:50:52;;;;;;;16.30;11.75;;;;;;;-144.05;94.60;56972.03;5092738;28;20031;-83
2024/02/01 03:53:19;;;;;;;15.70;11.88;;;7.60;99.90;;;-144.05;94.31;56959.28;5090200;28;20370;-80
2024/02/01 03:55:54;;;;;;;17.52;12.27;;;8.50;99.90;;;-144.05;93.71;56931.66;5089757;28;20485;-81
2024/02/01 03:58:21;;;;;;;14.95;11.23;;;;;;;-144.05;93.95;56972.03;5105920;28;20028;-83
2024/02/01 04:00:50;;;;;;;14.50;11.27;;;8.00;99.90;;;-144.05;93.51;56948.66;5098954;28;20196;-84
2024/02/01 04:03:16;;;;;;;15.85;11.15;;;8.10;99.90;;;-144.05;93.93;56944.41;5090697;28;20032;-82
2024/02/01 04:05:43;;;;;;;16.83;12.18;;;7.70;99.90;;;-144.05;93.32;56933.78;5092161;28;20556;-81
2024/02/01 04:08:12;;;;;;;20.27;13.13;;;7.10;99.90;;;-144.05;93.59;56959.28;5092355;28;20020;-84
2024/02/01 04:10:38;;;;;;;20.30;13.38;;;6.90;99.90;;;-144.05;94.39;56963.53;5105402;28;20085;-83
2024/02/01 04:13:07;;;;;;;19.88;14.38;;;6.50;99.90;;;-144.05;95.05;56959.28;5097872;28;20111;-82
2024/02/01 04:15:36;;;;;;;20.23;13.75;;;8.60;99.90;;;-144.05;94.61;56940.16;5096711;28;20031;-80
2024/02/01 04:18:04;;;;;;;19.05;13.88;;;6.80;99.90;;;-144.05;93.28;56969.91;5095456;28;20134;-82
2024/02/01 04:20:34;;;;;;;20.20;15.05;;;7.50;99.90;;;-144.05;92.97;56976.28;5101267;28;20080;-78
2024/02/01 04:23:00;;;;;;;17.25;13.48;;;;;;;-144.05;92.28;56969.91;5093670;28;20361;-79
2024/02/01 04:25:26;;;;;;;18.80;14.13;;;7.70;99.90;;;-144.05;93.14;56950.78;5093350;28;20553;-80
2024/02/01 04:27:54;;;;;;;20.63;14.38;;;6.90;99.90;;;-144.05;95.04;56976.28;5103054;28;20059;-80
2024/02/01 04:30:24;;;;;;;22.35;15.30;;;7.10;99.90;;;-144.05;94.32;56957.16;5104779;28;20032;-77
2024/02/01 04:32:50;;;;;;;23.95;16.75;;;8.90;99.90;;;-144.05;93.95;56984.78;5097779;28;20660;-80
2024/02/01 04:35:16;;;;;;;23.83;17.38;;;7.40;99.90;;;-144.05;93.47;56963.53;5097642;28;20058;-77
2024/02/01 04:37:44;;;;;;;26.48;18.38;;;7.50;99.90;;;-144.05;92.86;56963.53;5105344;28;20024;-80
2024/02/01 04:40:12;;;;;;;29.42;18.45;;;7.30;99.90;;;-144.05;92.31;56944.41;5102500;28;20059;-78
2024/02/01 04:42:40;;;;;;;29.35;20.15;;;7.50;99.90;;;-144.05;92.48;56946.53;5107105;28;20032;-81
2024/02/01 04:45:08;;;;;;;29.75;19.23;;;8.10;99.90;;;-144.05;92.75;56972.03;5101171;28;20028;-76
2024/02/01 04:47:36;;;;;;;29.63;20.63;;;7.80;99.90;;;-144.05;92.08;56950.78;5103345;28;20032;-82
2024/02/01 04:50:04;;;;;;;31.83;21.48;;;7.80;99.90;;;-144.05;91.81;56963.53;5095030;28;20202;-81
2024/02/01 04:52:31;;;;;;;31.95;21.92;;;7.90;99.90;;;-144.05;93.19;56955.03;5100911;28;20028;-79
2024/02/01 04:55:03;;;;;;;33.13;22.65;;;7.50;99.90;;;-144.05;92.65;56950.78;5093308;28;20493;-79
2024/02/01 04:57:29;;;;;;;36.38;24.27;;;;;;;-144.05;92.32;56942.28;5101201;28;20405;-80
2024/02/01 04:59:55;;;;;;;35.25;24.83;;;8.40;99.90;;;-144.05;92.41;56955.03;5093437;28;20024;-80
2024/02/01 05:02:20;;;;;;;37.95;25.50;;;7.10;99.90;;;-144.05;91.61;56963.53;5099393;28;20093;-78
2024/02/01 05:04:47;;;;;;;40.03;24.45;;;8.80;99.90;;;-144.05;91.22;56976.28;5091734;28;20039;-79
2024/02/01 05:07:13;;;;;;;39.70;26.08;;;6.80;99.90;;;-144.05;92.44;56942.28;5093578;28;20020;-80
2024/02/01 05:09:42;;;;;;;40.80;26.73;;;7.10;99.90;;;-144.05;92.47;56972.03;5095728;28;20028;-80
2024/02/01 05:12:09;;;;;;;41.33;26.92;;;7.20;99.90;;;-144.05;92.82;56950.78;5100408;28;20108;-81
2024/02/01 05:14:36;;;;;;;43.33;26.77;;;7.40;99.90;;;-144.05;91.88;56933.78;5102135;28;20505;-81
2024/02/01 05:17:03;;;;;;;43.00;27.35;;;7.10;99.90;;;-144.05;92.19;56946.53;5099746;28;20416;-82
2024/02/01 05:19:29;;;;;;;41.42;26.55;;;6.40;99.90;;;-144.05;92.35;56961.41;5111854;28;20016;-80
2024/02/01 05:21:55;;;;;;;44.70;27.27;;;7.70;99.90;;;-144.05;91.40;56938.03;5103525;28;20051;-79
2024/02/01 05:24:22;;;;;;;41.33;26.70;;;6.70;99.90;;;-144.05;91.84;56959.28;5096674;28;20039;-79
2024/02/01 05:26:50;;;;;;;44.85;26.50;;;;;;;-144.05;92.17;56959.28;5094890;28;20039;-80
2024/02/01 05:29:25;;;;;;;43.22;26.25;;;9.10;99.90;;;-144.05;91.14;56959.28;5095909;28;20032;-81
2024/02/01 05:31:55;;;;;;;50.45;28.40;;;10.90;99.90;;;-144.05;91.43;56957.16;5095683;28;20028;-80
2024/02/01 05:34:23;;;;;;;49.95;29.13;;;;;;;-144.05;92.41;56927.41;5101885;28;20091;-80
2024/02/01 05:36:52;;;;;;;49.25;30.10;;;6.80;99.90;;;-144.05;91.81;56935.91;5095063;28;20032;-79
2024/02/01 05:39:26;;;;;;;45.83;28.25;;;7.60;99.90;;;-144.05;91.88;56950.78;5095221;28;20032;-81
2024/02/01 05:41:55;;;;;;;46.50;28.08;;;7.50;99.90;;;-144.05;91.45;56955.03;5103379;28;20036;-79
2024/02/01 05:44:23;;;;;;;52.90;28.20;;;7.00;99.90;;;-144.05;91.35;56969.91;5101564;28;20024;-79
2024/02/01 05:46:54;;;;;;;47.35;29.08;;;7.10;99.90;;;-144.05;90.95;56959.28;5096576;28;20077;-79
2024/02/01 05:49:33;;;;;;;41.88;27.85;;;7.20;99.90;;;-144.05;91.12;56963.53;5111235;28;20028;-80
2024/02/01 05:52:04;;;;;;;44.88;28.02;;;7.00;99.90;;;-144.05;91.15;56944.41;5096374;28;20027;-82
2024/02/01 05:54:33;;;;;;;49.90;29.80;;;6.80;99.90;;;-144.05;91.07;56963.53;5095543;28;20028;-81
2024/02/01 05:56:59;;;;;;;50.03;29.65;;;7.10;99.90;;;-144.05;91.01;56938.03;5095515;28;20459;-81
2024/02/01 05:59:25;;;;;;;40.75;25.35;;;7.40;99.90;;;-144.05;89.76;56989.00;5094153;28;20032;-80
2024/02/01 06:01:51;;;;;;;42.25;25.98;;;;;;;-144.05;89.62;56948.66;5094452;28;20024;-81
2024/02/01 06:04:17;;;;;;;34.78;22.02;;;6.80;99.90;;;-144.05;89.64;56972.03;5093581;28;20378;-81
2024/02/01 06:06:47;;;;;;;35.78;22.50;;;7.70;99.90;;;-144.05;89.01;56950.78;5095291;28;20062;-79
2024/02/01 06:09:15;;;;;;;29.85;18.80;;;7.60;99.90;;;-144.05;89.25;56944.41;5095870;28;20027;-77
2024/02/01 06:11:49;;;;;;;26.63;16.75;;;7.70;99.90;;;-144.05;88.75;56976.28;5095919;28;20062;-80
2024/02/01 06:14:16;;;;;;;28.42;16.80;;;7.90;99.90;;;-144.05;88.30;56940.16;5103885;28;20055;-79
2024/02/01 06:16:44;;;;;;;26.50;15.18;;;7.00;99.90;;;-144.05;88.85;56955.03;5093724;28;20035;-79
2024/02/01 06:19:11;;;;;;;25.63;15.18;;;6.50;99.90;;;-144.05;88.08;56948.66;5095107;28;20042;-77
2024/02/01 06:21:36;;;;;;;20.70;14.32;;;7.00;99.90;;;-144.05;87.75;56963.53;5095195;28;20050;-77
2024/02/01 06:24:04;;;;;;;27.80;15.23;;;;;;;-144.05;88.04;56963.53;5094206;28;20032;-77
2024/02/01 06:26:30;;;;;;;25.00;13.88;;;;;;;-144.05;87.68;56972.03;5094368;28;20077;-79
2024/02/01 06:29:07;;;;;;;25.38;14.30;;;7.90;99.90;;;-144.05;87.67;56944.41;5094583;28;20050;-79
2024/02/01 06:31:40;;;;;;;24.50;14.10;;;8.70;99.90;;;-144.05;87.24;56974.16;5107130;28;20381;-78
2024/02/01 06:34:12;;;;;;;16.35;11.07;;;8.80;99.90;;;-144.05;86.69;56976.28;5097727;28;20085;-81
2024/02/01 06:36:40;;;;;;;20.63;12.15;;;7.80;99.90;;;-144.05;85.67;56955.03;5095803;28;20020;-80
2024/02/01 06:39:16;;;;;;;21.95;11.48;;;7.80;99.90;;;-144.05;85.61;56955.03;5096649;28;20087;-83
2024/02/01 06:42:02;;;;;;;19.02;10.10;;;7.60;99.90;;;-144.05;85.20;56959.28;5099293;28;20030;-81
2024/02/01 06:44:31;;;;;;;19.60;10.02;;;6.50;99.90;;;-144.05;84.93;56959.28;5097362;28;20081;-82
2024/02/01 06:52:02;;;;;;;15.57;8.32;;;6.40;99.90;;;-144.05;84.29;56974.16;5096283;28;20489;-80
2024/02/01 06:57:34;;;;;;;13.63;6.03;;;;;;;-144.05;82.96;56984.78;5074042;28;20112;-78
2024/02/01 07:02:51;;;;;;;16.25;4.28;;;6.50;99.90;;;-144.05;80.33;56967.78;5099421;28;20114;-80
2024/02/01 07:05:57;;;;;;;11.90;3.80;;;;;;;-144.05;78.81;56972.03;5097817;28;20046;-81
2024/02/01 07:08:13;;;;;;;24.33;3.83;;;6.80;99.90;;;-144.05;77.44;56982.66;5096867;28;20123;-79
2024/02/01 07:10:43;;;;;;;13.80;3.47;;;7.70;99.90;;;-144.05;77.63;56984.78;5096069;28;20058;-78
2024/02/01 07:16:13;;;;;;;17.05;3.50;;;7.60;99.90;;;-144.05;74.51;56978.41;5095065;28;20031;-80
2024/02/01 07:18:43;;;;;;;26.13;3.92;;;3.70;99.90;;;-144.05;74.43;56972.03;5093603;28;20136;-78
2024/02/01 07:21:29;;;;;;;24.60;4.47;;;3.80;99.90;;;-144.05;74.73;56995.38;5094150;28;20024;-79
2024/02/01 07:24:07;;;;;;;21.17;3.58;;;3.70;99.90;;;-144.05;74.78;56982.66;5093676;28;20036;-79
2024/02/01 07:26:43;;;;;;;20.63;3.83;;;3.50;99.90;;;-144.05;74.91;56991.13;5099879;28;20031;-77
2024/02/01 07:59:26;;;;;;;21.85;3.28;;;3.80;99.90;;;-144.05;73.10;56967.78;5102618;28;20410;-76
2024/02/01 08:02:02;;;;;;;21.00;3.40;;;;;;;-144.05;72.91;56963.53;5103598;28;20028;-79
2024/02/01 08:09:57;;;;;;;16.45;3.50;;;;;;;-144.05;72.24;56995.38;5097004;28;20035;-79
2024/02/01 08:12:23;;;;;;;21.85;3.20;;;3.80;99.90;;;-144.05;71.72;56974.16;5097692;28;20020;-79
2024/02/01 08:14:51;;;;;;;20.67;3.75;;;;;;;-144.05;71.38;56955.03;5096499;28;20031;-80
2024/02/01 08:17:16;;;;;;;13.40;3.33;;;7.00;99.90;;;-144.05;71.05;56972.03;5102148;28;20088;-78
2024/02/01 08:19:43;;;;;;;18.42;3.17;;;;;;;-144.05;71.06;56965.66;5104636;28;20777;-81
2024/02/01 08:22:09;;;;;;;17.67;3.58;;;6.80;99.90;;;-144.05;71.15;56974.16;5099637;28;20044;-79
2024/02/01 08:24:34;;;;;;;22.05;3.28;;;4.90;99.90;;;-144.05;71.87;56984.78;5100035;28;20088;-79
2024/02/01 08:27:01;;;;;;;17.25;3.72;;;;;;;-144.05;71.46;56976.28;5100226;28;20020;-78
2024/02/01 08:29:35;;;;;;;16.80;3.45;;;7.40;99.90;;;-144.05;71.82;56946.53;5098578;28;20020;-79
2024/02/01 08:32:03;;;;;;;15.70;3.47;;;7.90;99.90;;;-144.05;71.75;56957.16;5099379;28;20024;-79
2024/02/01 08:34:29;;;;;;;23.88;3.83;;;7.50;99.90;;;-144.05;72.18;56972.03;5107046;28;20095;-80
2024/02/01 08:36:55;;;;;;;26.15;4.70;;;;;;;-144.05;71.71;56959.28;5099561;28;20087;-78
2024/02/01 08:39:21;;;;;;;23.75;2.78;;;6.90;99.90;;;-144.05;71.63;56986.91;5104299;28;20102;-77
2024/02/01 08:41:47;;;;;;;16.35;3.13;;;7.90;99.90;;;-144.05;70.59;56967.78;5115687;28;20032;-79
2024/02/01 08:44:13;;;;;;;21.63;3.45;;;;;;;-144.05;70.69;56976.28;5099968;28;20032;-77
2024/02/01 08:46:39;;;;;;;20.50;3.60;;;6.70;99.90;;;-144.05;70.40;56991.13;5098634;28;20524;-77
2024/02/01 08:49:04;;;;;;;20.25;3.75;;;7.60;99.90;;;-144.05;70.47;56946.53;5101728;28;20028;-79
2024/02/01 08:51:31;;;;;;;12.00;3.00;;;;;;;-144.05;70.87;56933.78;5100736;28;20072;-80
2024/02/01 08:53:57;;;;;;;19.17;2.95;;;;;;;-144.05;70.73;56967.78;5101153;28;20037;-77
2024/02/01 08:56:23;;;;;;;23.85;3.72;;;;;;;-144.05;71.57;56955.03;5107538;28;20024;-79
2024/02/01 08:58:49;;;;;;;18.30;3.00;;;7.10;99.90;;;-144.05;70.37;56982.66;5106835;28;20073;-79
2024/02/01 09:01:26;;;;;;;26.20;3.90;;;8.20;99.90;;;-144.05;69.82;56952.91;5111807;28;20059;-78
2024/02/01 09:03:52;;;;;;;18.40;4.47;;;8.20;99.90;;;-144.05;70.29;56969.91;5103671;28;20032;-79
2024/02/01 09:06:19;;;;;;;20.90;3.17;;;8.60;99.90;;;-144.05;69.32;56997.50;5115686;28;20047;-78
2024/02/01 09:08:46;;;;;;;26.40;4.20;;;;;;;-144.05;68.89;56969.91;5100009;28;20044;-76
2024/02/01 09:11:14;;;;;;;23.98;3.88;;;7.80;99.90;;;-144.05;67.93;56961.41;5098609;28;20529;-79
2024/02/01 09:13:46;;;;;;;25.05;4.97;;;6.00;99.90;;;-144.05;66.90;56957.16;5099806;28;20429;-78
2024/02/01 09:16:30;;;;;;;26.15;4.97;;;7.70;99.90;;;-144.05;66.75;56963.53;5114051;28;20020;-77
2024/02/01 09:19:00;;;;;;;29.92;6.43;;;7.90;99.90;;;-144.05;66.21;56963.53;5099416;28;20050;-76
2024/02/01 09:21:26;;;;;;;14.93;3.17;;;8.40;99.90;;;-144.05;66.54;56959.28;5105602;28;20096;-77
2024/02/01 09:23:51;;;;;;;24.73;3.58;;;7.60;99.90;;;-144.05;65.82;56963.53;5098664;28;20028;-77
2024/02/01 09:26:17;;;;;;;20.75;4.57;;;7.20;99.90;;;-144.05;65.41;56938.03;5106671;28;20036;-78
2024/02/01 09:28:44;;;;;;;32.00;4.20;;;;;;;-144.05;65.91;56957.16;5110249;28;20020;-76
2024/02/01 09:31:20;;;;;;;29.40;5.70;;;7.50;99.90;;;-144.05;65.66;56950.78;5120979;28;20138;-77
2024/02/01 09:33:47;;;;;;;24.15;5.10;;;7.40;99.90;;;-144.05;65.29;56952.91;5097812;28;20392;-77
2024/02/01 09:36:14;;;;;;;23.45;4.10;;;;;;;-144.05;65.36;56955.03;5113058;28;20055;-75
2024/02/01 09:38:40;;;;;;;24.83;5.05;;;8.70;99.90;;;-144.05;65.78;56955.03;5098611;28;20401;-77
2024/02/01 09:41:15;;;;;;;22.80;3.55;;;7.80;99.90;;;-144.05;65.43;56980.53;5104205;28;20488;-77
2024/02/01 09:43:50;;;;;;;23.48;4.50;;;7.80;99.90;;;-144.05;65.42;56959.28;5098266;28;20029;-75
2024/02/01 09:46:20;;;;;;;21.48;5.88;;;6.90;99.90;;;-144.05;65.96;56961.41;5106957;28;20048;-76
2024/02/01 09:48:47;;;;;;;22.52;9.20;;;7.00;99.90;;;-144.05;65.71;56967.78;5102298;28;20199;-78
2024/02/01 09:51:19;;;;;;;23.20;6.88;;;6.90;99.90;;;-144.05;65.68;56963.53;5097622;28;20396;-77
2024/02/01 09:53:50;;;;;;;23.88;6.03;;;6.40;99.90;;;-144.05;66.18;56972.03;5096099;28;20024;-76
2024/02/01 09:56:18;;;;;;;21.50;4.18;;;6.80;99.90;;;-144.05;65.51;56980.53;5097619;28;20132;-77
2024/02/01 09:58:44;;;;;;;25.75;5.13;;;8.70;99.90;;;-144.05;65.23;56955.03;5097186;28;20028;-81
2024/02/01 10:01:11;;;;;;;17.77;4.53;;;7.20;99.90;;;-144.05;65.92;56959.28;5099526;28;20481;-77
2024/02/01 10:03:43;;;;;;;25.60;4.05;;;7.60;99.90;;;-144.05;65.91;56978.41;5100163;28;20020;-78
2024/02/01 10:06:09;;;;;;;20.45;3.58;;;;;;;-144.05;65.57;56948.66;5097966;28;20028;-78
2024/02/01 10:08:37;;;;;;;28.55;4.30;;;;;;;-144.05;63.74;56965.66;5099978;28;20028;-78
2024/02/01 10:11:04;;;;;;;15.35;3.70;;;6.90;99.90;;;-144.05;63.96;56946.53;5097082;28;20503;-79
2024/02/01 10:13:37;;;;;;;22.48;4.07;;;7.40;99.90;;;-144.05;63.22;56948.66;5098390;28;20024;-77
2024/02/01 10:16:12;;;;;;;21.20;3.85;;;;;;;-144.05;63.42;56972.03;5096735;28;20024;-78
2024/02/01 10:18:38;;;;;;;20.83;3.85;;;8.20;99.90;;;-144.05;62.86;56963.53;5099775;28;20028;-79
2024/02/01 10:21:21;;;;;;;18.05;4.78;;;7.10;99.90;;;-144.05;62.36;56961.41;5111040;28;20028;-81
2024/02/01 10:23:48;;;;;;;23.80;4.07;;;7.80;99.90;;;-144.05;60.65;56908.31;5116468;28;20020;-81
2024/02/01 10:26:24;;;;;;;18.58;3.47;;;7.90;99.90;;;-144.05;59.42;56959.28;5111609;28;20370;-81
2024/02/01 10:28:50;;;;;;;22.60;3.80;;;;;;;-144.05;58.31;56940.16;5098640;28;20473;-79
2024/02/01 10:31:21;;;;;;;18.30;3.90;;;7.60;99.90;;;-144.05;58.67;56950.78;5097710;28;20531;-81
2024/02/01 10:33:49;;;;;;;20.38;3.90;;;8.70;99.90;;;-144.05;59.42;56942.28;5098512;28;20048;-79
2024/02/01 10:36:29;;;;;;;20.23;4.53;;;7.50;99.90;;;-144.05;58.35;56935.91;5110473;28;20027;-78
2024/02/01 10:38:58;;;;;;;15.70;3.47;;;7.50;99.90;;;-144.05;58.21;56978.41;5110419;28;20015;-77
2024/02/01 10:41:36;;;;;;;21.05;3.60;;;8.70;99.90;;;-144.05;58.55;56952.91;5095230;28;20474;-77
2024/02/01 10:44:04;;;;;;;31.95;3.80;;;11.00;99.90;;;-144.05;58.34;56942.28;5096129;28;20027;-75
2024/02/01 10:46:55;;;;;;;23.70;3.67;;;7.80;99.90;;;-144.05;58.17;56955.03;5093830;28;20456;-79
2024/02/01 10:49:30;;;;;;;22.60;4.00;;;11.60;99.90;;;-144.05;57.63;56935.91;5095533;28;20343;-77
2024/02/01 10:51:57;;;;;;;16.98;3.10;;;8.50;99.90;;;-144.05;58.51;56942.28;5104568;28;20023;-79
2024/02/01 10:54:27;;;;;;;19.30;3.42;;;9.00;99.90;;;-144.05;58.41;56950.78;5095410;28;20119;-77
2024/02/01 10:56:55;;;;;;;15.02;2.85;;;7.60;99.90;;;-144.05;57.47;56944.41;5103846;28;20427;-76
2024/02/01 10:59:22;;;;;;;21.48;4.00;;;7.80;99.90;;;-144.05;57.76;56944.41;5110093;28;20031;-77
2024/02/01 11:01:49;;;;;;;17.42;3.72;;;;;;;-144.05;57.80;56955.03;5094690;28;20478;-77
2024/02/01 11:04:16;;;;;;;21.20;5.47;;;;;;;-144.05;56.84;56961.41;5093985;28;20024;-76
2024/02/01 11:06:49;;;;;;;25.92;5.63;;;9.30;99.90;;;-144.05;56.64;56946.53;5094278;28;20020;-76
2024/02/01 11:09:22;;;;;;;21.20;4.63;;;8.20;99.90;;;-144.05;57.33;56955.03;5093560;28;20035;-76
2024/02/01 11:11:54;;;;;;;20.10;4.18;;;7.20;99.90;;;-144.05;57.74;56927.41;5094753;28;20020;-77
2024/02/01 11:14:31;;;;;;;22.02;3.70;;;9.10;99.90;;;-144.05;58.11;56984.78;5095655;28;20016;-78